Time;durP1;ratioP1;P1;durP2;ratioP2;P2;SDS_P1;SDS_P2;PMS_P1;PMS_P2;Temp;Humidity;BMP_temperature;BMP_pressure;BME280_temperature;BME280_humidity;BME280_pressure;Samples;Min_cycle;Max_cycle;Signal;HPM_P1;HPM_P2
2022/06/24 00:02:09;;;;;;;;;;;22.80;91.10;;;;;;5088702;28;20406;-83
2022/06/24 00:04:34;;;;;;;4.68;2.35;;;22.80;91.40;;;;;;5100084;28;19926;-84
2022/06/24 00:07:00;;;;;;;2.58;2.10;;;22.80;91.40;;;;;;5052897;28;20040;-85
2022/06/24 00:09:30;;;;;;;3.30;2.08;;;22.80;91.20;;;;;;5083872;28;20472;-84
2022/06/24 00:12:14;;;;;;;5.18;2.30;;;22.80;91.40;;;;;;5089359;28;20040;-84
2022/06/24 00:14:41;;;;;;;2.88;1.95;;;22.70;91.70;;;;;;5084245;28;20044;-84
2022/06/24 00:17:11;;;;;;;2.67;1.70;;;22.70;91.70;;;;;;5087094;28;20094;-85
2022/06/24 00:19:52;;;;;;;2.08;1.63;;;22.70;91.80;;;;;;5093634;28;20111;-83
2022/06/24 00:22:18;;;;;;;3.42;2.10;;;22.60;92.90;;;;;;5086402;28;20048;-85
2022/06/24 00:24:44;;;;;;;2.83;2.10;;;22.50;92.90;;;;;;5085875;28;20073;-84
2022/06/24 00:27:22;;;;;;;5.63;2.15;;;22.50;93.20;;;;;;5063596;28;20528;-85
2022/06/24 00:29:49;;;;;;;3.15;1.98;;;22.40;93.50;;;;;;5092335;28;20043;-84
2022/06/24 00:32:16;;;;;;;5.53;2.42;;;22.30;93.50;;;;;;5094981;28;20108;-85
2022/06/24 00:34:42;;;;;;;3.22;2.35;;;22.20;93.80;;;;;;5084946;28;20036;-85
2022/06/24 00:37:24;;;;;;;;;;;22.20;93.80;;;;;;5065893;28;20154;-85
2022/06/24 00:39:52;;;;;;;2.70;1.83;;;22.20;94.10;;;;;;5089503;28;19960;-84
2022/06/24 00:42:19;;;;;;;3.80;1.90;;;22.30;93.80;;;;;;5111272;28;20516;-85
2022/06/24 00:45:26;;;;;;;5.13;2.08;;;22.30;93.90;;;;;;5065818;28;20040;-85
2022/06/24 00:47:54;;;;;;;3.70;2.03;;;22.20;94.40;;;;;;5081823;28;20035;-84
2022/06/24 00:50:26;;;;;;;5.00;2.25;;;22.10;94.20;;;;;;5051013;28;20059;-85
2022/06/24 00:52:54;;;;;;;3.38;2.05;;;22.00;94.00;;;;;;5082289;28;20488;-85
2022/06/24 00:55:28;;;;;;;2.78;2.15;;;22.00;94.00;;;;;;5085904;28;20056;-84
2022/06/24 00:57:54;;;;;;;3.55;2.03;;;21.90;94.10;;;;;;5084154;28;20123;-85
2022/06/24 01:00:23;;;;;;;4.43;2.17;;;21.90;94.30;;;;;;5083959;28;20039;-84
2022/06/24 01:02:49;;;;;;;7.50;2.17;;;21.90;94.10;;;;;;5092289;28;20036;-84
2022/06/24 01:05:17;;;;;;;4.85;1.90;;;21.80;94.00;;;;;;5076782;28;20101;-84
2022/06/24 01:07:42;;;;;;;3.38;2.00;;;21.80;94.00;;;;;;5093573;28;20043;-85
2022/06/24 01:10:09;;;;;;;5.90;2.03;;;21.80;94.10;;;;;;5093013;28;20043;-84
2022/06/24 01:12:36;;;;;;;2.88;2.17;;;21.70;94.30;;;;;;5092642;28;20097;-85
2022/06/24 01:15:03;;;;;;;3.47;2.20;;;21.60;94.50;;;;;;5083893;28;20032;-84
2022/06/24 01:17:29;;;;;;;3.72;2.13;;;21.50;94.50;;;;;;5068217;28;20039;-84
2022/06/24 01:19:55;;;;;;;3.60;2.20;;;21.40;94.40;;;;;;5105240;28;20038;-84
2022/06/24 01:22:22;;;;;;;4.00;2.60;;;21.40;94.10;;;;;;5081642;28;20407;-84
2022/06/24 01:24:48;;;;;;;3.22;2.30;;;21.30;93.90;;;;;;5085797;28;20416;-84
2022/06/24 01:27:13;;;;;;;;;;;21.30;93.50;;;;;;5077280;28;20066;-85
2022/06/24 01:29:39;;;;;;;5.55;2.60;;;21.30;93.40;;;;;;5094257;28;19916;-86
2022/06/24 01:32:05;;;;;;;3.78;2.50;;;21.30;93.30;;;;;;5093505;28;20092;-84
2022/06/24 01:34:31;;;;;;;4.22;2.42;;;21.30;93.20;;;;;;5086615;28;20043;-85
2022/06/24 01:36:57;;;;;;;4.00;2.28;;;21.40;93.10;;;;;;5079183;28;20036;-85
2022/06/24 01:39:22;;;;;;;3.45;2.38;;;21.30;93.10;;;;;;5087338;28;20044;-85
2022/06/24 01:41:49;;;;;;;6.18;2.67;;;21.30;93.20;;;;;;5092065;28;20503;-85
2022/06/24 01:44:15;;;;;;;4.00;2.28;;;21.30;93.60;;;;;;5091012;28;20047;-84
2022/06/24 01:46:41;;;;;;;3.30;2.40;;;21.30;93.80;;;;;;5093753;28;20492;-84
2022/06/24 01:49:07;;;;;;;3.55;2.30;;;21.20;93.80;;;;;;5083270;28;20043;-85
2022/06/24 01:51:35;;;;;;;3.88;2.20;;;21.20;93.90;;;;;;5088776;28;20040;-84
2022/06/24 01:54:02;;;;;;;3.65;2.40;;;21.20;94.00;;;;;;5086351;28;20039;-84
2022/06/24 01:56:28;;;;;;;5.07;2.50;;;21.10;94.20;;;;;;5083927;28;20399;-84
2022/06/24 01:58:54;;;;;;;3.05;2.60;;;21.10;94.40;;;;;;5083814;28;20484;-84
2022/06/24 02:01:20;;;;;;;5.30;3.00;;;21.10;94.60;;;;;;5066978;28;20142;-85
2022/06/24 02:03:46;;;;;;;5.10;2.72;;;21.10;94.70;;;;;;5086557;28;20050;-85
2022/06/24 02:06:13;;;;;;;4.53;2.20;;;21.10;94.80;;;;;;5085690;28;20177;-85
2022/06/24 02:08:40;;;;;;;4.75;2.50;;;21.00;95.00;;;;;;5102815;28;20032;-84
2022/06/24 02:13:51;;;;;;;5.70;2.83;;;20.90;95.10;;;;;;5071890;28;20039;-85
2022/06/24 02:16:20;;;;;;;4.70;2.85;;;20.90;95.00;;;;;;5066505;28;20065;-83
2022/06/24 02:18:46;;;;;;;3.95;3.00;;;20.80;95.00;;;;;;5099717;28;20040;-85
2022/06/24 02:21:12;;;;;;;6.38;2.63;;;20.80;95.00;;;;;;5101394;28;20119;-85
2022/06/24 02:23:38;;;;;;;;;;;20.80;95.10;;;;;;5083782;28;20068;-84
2022/06/24 02:26:04;;;;;;;3.85;2.97;;;20.80;95.80;;;;;;5097490;28;20391;-84
2022/06/24 02:28:30;;;;;;;5.00;2.90;;;20.70;95.70;;;;;;5075969;28;20032;-85
2022/06/24 02:30:58;;;;;;;6.35;3.13;;;20.70;95.60;;;;;;5067028;28;20030;-84
2022/06/24 02:33:25;;;;;;;5.15;2.92;;;20.70;95.80;;;;;;5087717;28;20130;-84
2022/06/24 02:35:50;;;;;;;4.43;2.70;;;20.60;95.70;;;;;;5082492;28;20090;-84
2022/06/24 02:38:16;;;;;;;4.80;2.92;;;20.60;95.60;;;;;;5075312;28;20032;-84
2022/06/24 02:40:45;;;;;;;3.38;2.80;;;20.60;95.50;;;;;;5058997;28;20043;-84
2022/06/24 02:43:28;;;;;;;4.55;2.97;;;20.50;95.40;;;;;;5080950;28;20076;-84
2022/06/24 02:45:58;;;;;;;5.20;2.70;;;20.50;95.70;;;;;;5084285;28;20090;-84
2022/06/24 02:48:24;;;;;;;3.65;2.40;;;20.50;95.90;;;;;;5101900;28;20444;-85
2022/06/24 02:50:55;;;;;;;5.22;3.20;;;20.50;95.80;;;;;;5085044;28;20131;-84
2022/06/24 02:53:22;;;;;;;5.72;2.85;;;20.50;95.80;;;;;;5092328;28;20091;-85
2022/06/24 02:56:09;;;;;;;6.10;3.00;;;20.50;95.80;;;;;;5092741;28;20098;-84
2022/06/24 02:58:35;;;;;;;4.43;3.22;;;20.40;95.70;;;;;;5089249;28;20047;-85
2022/06/24 03:01:02;;;;;;;3.63;2.90;;;20.50;95.50;;;;;;5092426;28;20487;-85
2022/06/24 03:03:28;;;;;;;4.97;3.13;;;20.40;95.40;;;;;;5092713;28;20031;-85
2022/06/24 03:05:55;;;;;;;3.60;3.08;;;20.30;95.20;;;;;;5109772;28;20380;-84
2022/06/24 03:08:22;;;;;;;4.47;3.20;;;20.30;95.40;;;;;;5066057;28;20040;-84
2022/06/24 03:10:49;;;;;;;5.07;2.95;;;20.30;95.50;;;;;;5097705;28;20484;-84
2022/06/24 03:13:15;;;;;;;4.47;3.20;;;20.30;95.30;;;;;;5080706;28;20051;-84
2022/06/24 03:15:43;;;;;;;6.05;3.58;;;20.30;95.20;;;;;;5065550;28;20137;-84
2022/06/24 03:18:09;;;;;;;4.53;3.40;;;20.30;95.10;;;;;;5099724;28;20059;-84
2022/06/24 03:20:35;;;;;;;7.38;3.63;;;20.20;95.00;;;;;;5097310;28;20028;-85
2022/06/24 03:23:01;;;;;;;4.57;3.00;;;20.20;95.40;;;;;;5082705;28;20045;-85
2022/06/24 03:25:27;;;;;;;4.07;3.47;;;20.20;95.50;;;;;;5070924;28;20133;-84
2022/06/24 03:27:52;;;;;;;4.82;3.15;;;20.10;95.60;;;;;;5092397;28;20035;-84
2022/06/24 03:30:18;;;;;;;6.93;3.30;;;20.10;95.60;;;;;;5080959;28;20392;-84
2022/06/24 03:32:44;;;;;;;5.03;3.38;;;20.10;95.60;;;;;;5084518;28;20111;-85
2022/06/24 03:35:10;;;;;;;4.57;3.22;;;20.20;95.60;;;;;;5066639;28;20127;-85
2022/06/24 03:37:36;;;;;;;3.80;3.40;;;20.20;95.50;;;;;;5081981;28;20046;-85
2022/06/24 03:40:03;;;;;;;7.97;3.28;;;20.30;95.40;;;;;;5101382;28;20046;-86
2022/06/24 03:42:29;;;;;;;5.82;2.97;;;20.30;95.40;;;;;;5072879;28;20044;-85
2022/06/24 03:44:55;;;;;;;4.57;3.30;;;20.30;95.40;;;;;;5076721;28;20590;-85
2022/06/24 03:47:21;;;;;;;;;;;20.30;95.50;;;;;;5094553;28;20047;-83
2022/06/24 03:49:47;;;;;;;3.88;3.03;;;20.30;95.90;;;;;;5089647;28;19923;-87
2022/06/24 03:52:13;;;;;;;4.70;3.28;;;20.30;95.60;;;;;;5082722;28;20058;-84
2022/06/24 03:54:39;;;;;;;4.82;3.00;;;20.40;95.70;;;;;;5108555;28;20070;-84
2022/06/24 03:57:05;;;;;;;5.55;3.28;;;20.40;95.80;;;;;;5056946;28;20036;-84
2022/06/24 03:59:31;;;;;;;;;;;20.40;95.90;;;;;;5075284;28;20091;-84
2022/06/24 04:01:58;;;;;;;6.30;3.10;;;20.40;95.90;;;;;;5076997;28;20328;-85
2022/06/24 04:04:24;;;;;;;5.30;3.08;;;20.50;95.80;;;;;;5056006;28;20062;-84
2022/06/24 04:06:50;;;;;;;3.90;3.30;;;20.50;96.20;;;;;;5071845;28;20036;-85
2022/06/24 04:09:15;;;;;;;6.15;3.30;;;20.50;96.00;;;;;;5081965;28;20393;-85
2022/06/24 04:11:41;;;;;;;3.72;3.22;;;20.50;95.90;;;;;;5063591;28;20534;-85
2022/06/24 04:14:06;;;;;;;4.00;3.10;;;20.50;95.90;;;;;;5047691;28;20424;-85
2022/06/24 04:16:32;;;;;;;4.13;3.63;;;20.60;96.00;;;;;;5069937;28;20040;-84
2022/06/24 04:18:58;;;;;;;7.07;3.30;;;20.50;96.00;;;;;;5064646;28;20039;-85
2022/06/24 04:21:24;;;;;;;4.10;3.38;;;20.50;96.00;;;;;;5071578;28;20492;-84
2022/06/24 04:23:50;;;;;;;5.82;3.40;;;20.60;96.00;;;;;;5070987;28;20036;-85
2022/06/24 04:26:17;;;;;;;;;;;20.60;96.00;;;;;;5078145;28;20387;-84
2022/06/24 04:28:43;;;;;;;7.00;3.45;;;20.60;96.30;;;;;;5082943;28;20383;-85
2022/06/24 04:31:09;;;;;;;6.70;3.67;;;20.60;96.10;;;;;;5066375;28;20059;-86
2022/06/24 04:33:34;;;;;;;4.03;3.20;;;20.60;96.30;;;;;;5065051;28;20036;-85
2022/06/24 04:36:00;;;;;;;6.07;3.67;;;20.60;96.30;;;;;;5065284;28;20032;-84
2022/06/24 04:38:26;;;;;;;5.55;3.10;;;20.70;96.10;;;;;;5083185;28;20037;-83
2022/06/24 04:40:51;;;;;;;4.85;3.30;;;20.80;96.10;;;;;;5047863;28;20032;-85
2022/06/24 04:43:17;;;;;;;5.43;3.25;;;20.90;96.20;;;;;;5059568;28;20089;-84
2022/06/24 04:45:44;;;;;;;7.75;3.25;;;20.90;96.10;;;;;;5081269;28;20114;-84
2022/06/24 04:48:09;;;;;;;5.85;3.20;;;21.00;96.20;;;;;;5079376;28;20032;-84
2022/06/24 04:50:35;;;;;;;5.32;3.38;;;21.00;96.10;;;;;;5050607;28;20100;-85
2022/06/24 04:53:01;;;;;;;8.07;3.38;;;21.00;96.10;;;;;;5048915;28;20036;-85
2022/06/24 04:55:26;;;;;;;7.78;3.33;;;21.10;96.20;;;;;;5067993;28;20083;-85
2022/06/24 04:57:52;;;;;;;5.65;3.40;;;21.20;96.60;;;;;;5068398;28;20048;-85
2022/06/24 05:00:18;;;;;;;5.00;3.58;;;21.20;96.30;;;;;;5071955;28;20098;-84
2022/06/24 05:02:44;;;;;;;4.68;3.20;;;21.30;96.50;;;;;;5073693;28;20040;-84
2022/06/24 05:05:11;;;;;;;5.45;3.70;;;21.30;97.30;;;;;;5067632;28;20132;-84
2022/06/24 05:07:38;;;;;;;7.72;3.92;;;21.30;97.30;;;;;;5055267;28;20527;-85
2022/06/24 05:10:05;;;;;;;8.75;3.67;;;21.30;97.40;;;;;;5049315;28;20040;-84
2022/06/24 05:12:31;;;;;;;5.95;3.90;;;21.30;97.70;;;;;;5063962;28;20071;-84
2022/06/24 05:14:57;;;;;;;;;;;21.30;97.50;;;;;;5057002;28;20131;-84
2022/06/24 05:17:23;;;;;;;5.97;4.03;;;21.30;97.10;;;;;;5065612;28;20007;-84
2022/06/24 05:19:49;;;;;;;4.95;3.90;;;21.30;97.00;;;;;;5088161;28;20067;-83
2022/06/24 05:22:15;;;;;;;5.22;3.92;;;21.30;96.70;;;;;;5066089;28;20068;-84
2022/06/24 05:24:41;;;;;;;6.05;3.78;;;21.30;96.90;;;;;;5072735;28;20126;-84
2022/06/24 05:27:06;;;;;;;6.20;4.00;;;21.30;97.00;;;;;;5056274;28;20051;-83
2022/06/24 05:29:32;;;;;;;7.60;4.10;;;21.40;97.10;;;;;;5052458;28;20117;-84
2022/06/24 05:31:58;;;;;;;7.63;4.03;;;21.40;97.20;;;;;;5072147;28;20040;-83
2022/06/24 05:34:23;;;;;;;5.43;3.88;;;21.50;97.70;;;;;;5072785;28;20044;-84
2022/06/24 05:36:49;;;;;;;4.50;3.45;;;21.60;97.50;;;;;;5066819;28;20040;-84
2022/06/24 05:39:15;;;;;;;8.02;4.28;;;21.80;97.60;;;;;;5071085;28;20040;-85
2022/06/24 05:41:41;;;;;;;4.32;3.78;;;21.90;97.90;;;;;;5056119;28;20530;-84
2022/06/24 05:44:08;;;;;;;6.30;3.60;;;21.90;97.70;;;;;;5078506;28;20066;-83
2022/06/24 05:46:33;;;;;;;;;;;22.00;97.90;;;;;;5083631;28;20400;-83
2022/06/24 05:48:59;;;;;;;7.40;4.35;;;22.00;98.50;;;;;;5056483;28;20011;-84
2022/06/24 05:51:25;;;;;;;8.25;4.55;;;22.00;98.10;;;;;;5050955;28;20089;-83
2022/06/24 05:56:36;;;;;;;11.30;5.10;;;21.90;98.70;;;;;;5069868;28;20455;-83
2022/06/24 05:59:03;;;;;;;7.50;4.85;;;21.80;98.90;;;;;;5062909;28;20082;-84
2022/06/24 06:01:29;;;;;;;6.82;5.40;;;21.80;99.00;;;;;;5066142;28;20090;-82
2022/06/24 06:03:55;;;;;;;8.40;5.93;;;21.70;99.20;;;;;;5063664;28;20540;-83
2022/06/24 06:06:21;;;;;;;7.50;5.45;;;21.60;99.50;;;;;;5050238;28;20097;-84
2022/06/24 06:08:46;;;;;;;9.90;6.00;;;21.60;99.70;;;;;;5070088;28;20032;-83
2022/06/24 06:11:22;;;;;;;9.80;6.53;;;21.50;99.90;;;;;;5037332;28;20548;-83
2022/06/24 06:13:50;;;;;;;13.68;7.28;;;21.50;99.90;;;;;;5080363;28;20039;-84
2022/06/24 06:16:16;;;;;;;11.02;7.28;;;21.40;99.90;;;;;;5079148;28;20050;-83
2022/06/24 06:18:43;;;;;;;28.95;9.95;;;21.40;99.90;;;;;;5052936;28;20127;-82
2022/06/24 06:21:10;;;;;;;25.50;12.90;;;21.20;99.90;;;;;;5069457;28;20479;-78
2022/06/24 06:23:38;;;;;;;18.73;10.05;;;21.10;99.90;;;;;;5071419;28;20092;-80
2022/06/24 06:26:05;;;;;;;21.95;11.18;;;20.80;99.90;;;;;;5072070;28;20411;-81
2022/06/24 06:28:31;;;;;;;16.85;11.00;;;20.60;99.90;;;;;;5078683;28;20040;-81
2022/06/24 06:30:58;;;;;;;21.90;12.82;;;20.50;99.90;;;;;;5062264;28;20033;-82
2022/06/24 06:33:24;;;;;;;18.92;11.70;;;20.60;99.90;;;;;;5068577;28;20068;-83
2022/06/24 06:35:49;;;;;;;17.27;10.38;;;20.60;99.90;;;;;;5063303;28;20055;-83
2022/06/24 06:38:16;;;;;;;16.67;11.10;;;20.60;99.90;;;;;;5062762;28;20091;-84
2022/06/24 06:40:42;;;;;;;15.45;9.80;;;20.70;99.90;;;;;;5048918;28;20095;-84
2022/06/24 06:43:09;;;;;;;19.58;9.70;;;20.60;99.90;;;;;;5064994;28;20051;-83
2022/06/24 06:45:36;;;;;;;15.88;9.00;;;20.70;99.90;;;;;;5048561;28;20054;-83
2022/06/24 06:48:04;;;;;;;17.48;8.35;;;20.70;99.90;;;;;;5070703;28;20039;-82
2022/06/24 06:50:30;;;;;;;15.20;7.22;;;20.70;99.90;;;;;;5047576;28;20055;-83
2022/06/24 06:52:56;;;;;;;11.98;7.00;;;20.80;99.90;;;;;;5063604;28;20032;-83
2022/06/24 06:55:21;;;;;;;12.07;7.40;;;20.80;99.90;;;;;;5072613;28;20075;-84
2022/06/24 06:57:47;;;;;;;13.13;7.28;;;20.70;99.90;;;;;;5083535;28;20036;-84
2022/06/24 07:00:14;;;;;;;;;;;20.70;99.90;;;;;;5085549;28;20503;-84
2022/06/24 07:02:40;;;;;;;12.48;7.47;;;20.80;99.90;;;;;;5083372;28;20299;-83
2022/06/24 07:05:06;;;;;;;;;;;20.80;99.90;;;;;;5098353;28;20071;-83
2022/06/24 07:07:33;;;;;;;15.38;6.05;;;20.80;99.90;;;;;;5084373;28;19924;-82
2022/06/24 07:09:59;;;;;;;11.80;5.32;;;20.80;99.90;;;;;;5091780;28;20042;-84
2022/06/24 07:12:26;;;;;;;11.07;5.32;;;20.80;99.90;;;;;;5084612;28;20396;-84
2022/06/24 07:14:52;;;;;;;7.90;4.95;;;20.80;99.90;;;;;;5083102;28;20040;-84
2022/06/24 07:17:18;;;;;;;10.80;6.00;;;20.80;99.90;;;;;;5085573;28;20165;-84
2022/06/24 07:19:44;;;;;;;;;;;20.80;99.90;;;;;;5080511;28;20101;-83
2022/06/24 07:22:10;;;;;;;11.55;5.75;;;20.70;99.90;;;;;;5063516;28;20022;-84
2022/06/24 07:24:36;;;;;;;12.07;6.40;;;20.70;99.90;;;;;;5088658;28;20043;-84
2022/06/24 07:27:06;;;;;;;;;;;20.70;99.90;;;;;;5096124;28;20046;-83
2022/06/24 07:29:35;;;;;;;9.85;5.47;;;20.70;99.90;;;;;;5095142;28;19942;-83
2022/06/24 07:32:02;;;;;;;12.18;5.47;;;20.60;99.90;;;;;;5093028;28;20039;-83
2022/06/24 07:34:30;;;;;;;8.70;5.25;;;20.70;99.90;;;;;;5096910;28;20043;-83
2022/06/24 07:36:57;;;;;;;9.80;5.50;;;20.60;99.90;;;;;;5061036;28;20035;-83
2022/06/24 07:39:23;;;;;;;6.32;4.90;;;20.60;99.90;;;;;;5078844;28;20036;-82
2022/06/24 07:41:50;;;;;;;11.43;5.53;;;20.60;99.90;;;;;;5112410;28;20043;-83
2022/06/24 07:44:16;;;;;;;6.80;5.18;;;20.60;99.90;;;;;;5095078;28;20089;-83
2022/06/24 07:46:42;;;;;;;10.13;6.15;;;20.60;99.90;;;;;;5078341;28;20483;-83
2022/06/24 07:49:08;;;;;;;11.75;6.53;;;20.60;99.90;;;;;;5092229;28;20535;-82
2022/06/24 07:51:34;;;;;;;8.95;6.40;;;20.60;99.90;;;;;;5086253;28;20047;-83
2022/06/24 07:54:00;;;;;;;10.15;5.82;;;20.50;99.90;;;;;;5095402;28;20082;-82
2022/06/24 07:59:10;;;;;;;8.93;6.50;;;20.60;99.90;;;;;;5075808;28;20032;-78
2022/06/24 08:01:35;;;;;;;9.98;6.18;;;20.60;99.90;;;;;;5067998;28;20032;-79
2022/06/24 08:04:07;;;;;;;8.02;6.20;;;20.60;99.90;;;;;;5068759;28;20047;-78
2022/06/24 08:06:35;;;;;;;7.45;6.05;;;20.50;99.90;;;;;;5056183;28;20123;-78
2022/06/24 08:09:02;;;;;;;7.28;6.03;;;20.50;99.90;;;;;;5064612;28;20471;-77
2022/06/24 08:11:28;;;;;;;9.48;6.43;;;20.50;99.90;;;;;;5073441;28;20111;-78
2022/06/24 08:13:54;;;;;;;7.78;6.07;;;20.60;99.90;;;;;;5070860;28;20105;-82
2022/06/24 08:16:21;;;;;;;10.07;6.00;;;20.60;99.90;;;;;;5051616;28;20041;-82
2022/06/24 08:18:47;;;;;;;9.15;6.15;;;20.60;99.90;;;;;;5071061;28;20117;-83
2022/06/24 08:21:13;;;;;;;9.02;6.55;;;20.60;99.90;;;;;;5065381;28;20063;-83
2022/06/24 08:23:38;;;;;;;8.70;6.93;;;20.70;99.90;;;;;;5072552;28;20032;-82
2022/06/24 08:26:05;;;;;;;8.75;6.75;;;20.70;99.90;;;;;;5056929;28;20507;-82
2022/06/24 08:28:31;;;;;;;9.55;6.70;;;20.80;99.90;;;;;;5075700;28;20123;-82
2022/06/24 08:30:56;;;;;;;9.98;6.90;;;20.80;99.90;;;;;;5069481;28;20139;-83
2022/06/24 08:33:22;;;;;;;9.02;6.60;;;20.80;99.90;;;;;;5065826;28;20539;-83
2022/06/24 08:35:49;;;;;;;8.07;5.60;;;20.90;99.90;;;;;;5062017;28;20046;-82
2022/06/24 08:38:16;;;;;;;;;;;21.00;99.90;;;;;;5075639;28;20506;-83
2022/06/24 08:40:45;;;;;;;;;;;21.00;99.90;;;;;;5077370;28;19916;-82
2022/06/24 08:43:12;;;;;;;9.93;6.32;;;21.10;99.90;;;;;;5067353;28;20243;-83
2022/06/24 08:45:38;;;;;;;7.72;6.25;;;21.10;99.90;;;;;;5056425;28;20040;-83
2022/06/24 08:48:07;;;;;;;9.63;6.35;;;21.10;99.90;;;;;;5070263;28;20047;-83
2022/06/24 08:50:33;;;;;;;8.95;6.13;;;21.20;99.90;;;;;;5073698;28;20102;-83
2022/06/24 08:53:02;;;;;;;9.25;5.93;;;21.20;99.90;;;;;;5057292;28;20032;-83
2022/06/24 08:55:29;;;;;;;7.35;5.43;;;21.20;99.90;;;;;;5069273;28;20059;-83
2022/06/24 08:57:55;;;;;;;8.70;5.85;;;21.20;99.90;;;;;;5097962;28;20399;-82
2022/06/24 09:00:21;;;;;;;8.80;5.60;;;21.20;99.90;;;;;;5057714;28;20036;-82
2022/06/24 09:02:47;;;;;;;7.90;5.97;;;21.20;99.90;;;;;;5071714;28;20118;-84
2022/06/24 09:05:14;;;;;;;8.57;5.93;;;21.10;99.90;;;;;;5040341;28;20415;-83
2022/06/24 09:07:40;;;;;;;10.52;6.82;;;21.10;99.90;;;;;;5055761;28;20422;-82
2022/06/24 09:10:10;;;;;;;8.68;6.28;;;21.00;99.90;;;;;;5054908;28;20037;-82
2022/06/24 09:12:41;;;;;;;8.48;6.70;;;21.00;99.90;;;;;;5073017;28;20492;-82
2022/06/24 09:15:09;;;;;;;9.85;6.10;;;20.90;99.90;;;;;;5057084;28;20031;-82
2022/06/24 09:17:35;;;;;;;10.40;5.90;;;20.90;99.90;;;;;;5073091;28;20515;-83
2022/06/24 09:20:21;;;;;;;10.38;5.88;;;20.80;99.90;;;;;;5056385;28;20097;-81
2022/06/24 09:22:47;;;;;;;9.55;6.28;;;20.70;99.90;;;;;;5056586;28;20569;-81
2022/06/24 09:25:13;;;;;;;12.75;6.93;;;20.70;99.90;;;;;;5073350;28;20484;-82
2022/06/24 09:27:44;;;;;;;12.82;7.15;;;20.60;99.90;;;;;;5072647;28;20063;-82
2022/06/24 09:30:11;;;;;;;10.02;6.93;;;20.50;99.90;;;;;;5089092;28;20046;-82
2022/06/24 09:32:54;;;;;;;8.75;6.28;;;20.40;99.90;;;;;;5089511;28;20119;-82
2022/06/24 09:35:22;;;;;;;9.75;6.80;;;20.40;99.90;;;;;;5089426;28;20036;-82
2022/06/24 09:37:50;;;;;;;10.52;6.75;;;20.30;99.90;;;;;;5091053;28;20089;-83
2022/06/24 09:40:17;;;;;;;9.57;6.50;;;20.30;99.90;;;;;;5072731;28;20099;-82
2022/06/24 09:42:43;;;;;;;7.90;6.90;;;20.30;99.90;;;;;;5051086;28;20068;-84
2022/06/24 09:45:09;;;;;;;9.70;7.25;;;20.30;99.90;;;;;;5058742;28;20083;-85
2022/06/24 09:47:41;;;;;;;;;;;20.30;99.90;;;;;;5056622;28;20047;-84
2022/06/24 09:50:07;;;;;;;7.82;6.13;;;20.30;99.90;;;;;;5070456;28;20007;-83
2022/06/24 09:52:34;;;;;;;7.88;5.90;;;20.30;99.90;;;;;;5040250;28;20036;-83
2022/06/24 09:55:01;;;;;;;7.50;5.50;;;20.30;99.90;;;;;;5060628;28;20101;-83
2022/06/24 09:57:28;;;;;;;8.20;5.72;;;20.30;99.90;;;;;;5093509;28;20039;-83
2022/06/24 10:02:39;;;;;;;8.23;5.38;;;20.20;99.90;;;;;;5092146;28;20070;-84
2022/06/24 10:05:07;;;;;;;9.02;5.47;;;20.10;99.90;;;;;;5091683;27;20474;-83
2022/06/24 10:07:36;;;;;;;6.53;5.07;;;20.10;99.90;;;;;;5114724;27;20044;-83
2022/06/24 10:10:06;;;;;;;7.57;6.10;;;20.10;99.90;;;;;;5086353;28;20521;-83
2022/06/24 10:12:36;;;;;;;7.40;5.43;;;20.10;99.90;;;;;;5084024;28;20560;-84
2022/06/24 10:15:02;;;;;;;12.43;6.22;;;20.00;99.90;;;;;;5084477;27;20040;-83
2022/06/24 10:17:29;;;;;;;10.73;6.00;;;19.90;99.90;;;;;;5084893;27;20092;-82
2022/06/24 10:19:56;;;;;;;9.65;7.07;;;19.90;99.90;;;;;;5085181;28;20045;-83
2022/06/24 10:22:40;;;;;;;8.57;6.90;;;19.90;99.90;;;;;;5086913;27;20032;-83
2022/06/24 10:25:07;;;;;;;12.52;7.63;;;19.90;99.90;;;;;;5068544;27;20039;-83
2022/06/24 10:28:02;;;;;;;;;;;19.80;99.90;;;;;;5085021;28;20088;-83
2022/06/24 10:30:40;;;;;;;11.93;6.50;;;19.90;99.90;;;;;;5064275;28;19916;-82
2022/06/24 10:33:11;;;;;;;12.35;5.78;;;19.80;99.90;;;;;;5084388;28;20035;-82
2022/06/24 10:36:00;;;;;;;8.77;5.75;;;19.70;99.90;;;;;;5081234;28;20118;-82
2022/06/24 10:38:37;;;;;;;11.48;7.15;;;19.50;99.90;;;;;;5081701;28;20538;-82
2022/06/24 10:41:05;;;;;;;13.95;7.63;;;19.50;99.90;;;;;;5107789;27;20127;-82
2022/06/24 10:43:35;;;;;;;10.25;7.50;;;19.40;99.90;;;;;;5092019;27;20107;-82
2022/06/24 10:46:13;;;;;;;9.75;6.93;;;19.40;99.90;;;;;;5091055;28;20046;-82
2022/06/24 10:48:47;;;;;;;6.68;4.97;;;19.30;99.90;;;;;;5104352;28;20040;-82
2022/06/24 10:51:16;;;;;;;6.70;5.00;;;19.20;99.90;;;;;;5068661;28;20426;-80
2022/06/24 10:54:17;;;;;;;8.35;4.97;;;19.10;99.90;;;;;;5084968;28;20044;-80
2022/06/24 10:56:45;;;;;;;7.50;3.97;;;19.00;99.90;;;;;;4949607;28;20046;-79
2022/06/24 10:59:14;;;;;;;7.05;3.80;;;19.00;99.90;;;;;;5063487;28;20040;-81
2022/06/24 11:01:42;;;;;;;6.40;4.30;;;18.90;99.90;;;;;;5067550;28;20047;-81
2022/06/24 11:04:12;;;;;;;8.50;4.28;;;18.80;99.90;;;;;;5073558;28;20048;-81
2022/06/24 11:06:38;;;;;;;5.40;4.10;;;18.80;99.90;;;;;;5088200;28;20097;-81
2022/06/24 11:09:06;;;;;;;5.45;3.97;;;18.70;99.90;;;;;;5050338;28;20052;-81
2022/06/24 11:11:32;;;;;;;4.40;3.35;;;18.70;99.90;;;;;;5067175;28;20101;-81
2022/06/24 11:13:58;;;;;;;;;;;18.60;99.90;;;;;;5091432;28;20044;-80
2022/06/24 11:16:28;;;;;;;5.25;2.80;;;18.60;99.90;;;;;;5073096;28;19924;-80
2022/06/24 11:18:54;;;;;;;4.45;2.78;;;18.50;99.90;;;;;;5068043;28;20089;-81
2022/06/24 11:21:20;;;;;;;4.07;2.17;;;18.50;99.90;;;;;;5068754;28;20042;-81
2022/06/24 11:23:47;;;;;;;4.22;2.30;;;18.40;99.90;;;;;;5082759;28;20395;-81
2022/06/24 11:26:14;;;;;;;5.25;2.38;;;18.30;99.90;;;;;;5037720;28;20075;-81
2022/06/24 11:28:41;;;;;;;4.38;2.90;;;18.30;99.90;;;;;;5049930;28;20039;-82
2022/06/24 11:31:23;;;;;;;4.38;2.50;;;18.30;99.90;;;;;;5083314;28;20047;-82
2022/06/24 11:34:07;;;;;;;3.97;2.95;;;18.40;99.90;;;;;;5064259;28;20044;-82
2022/06/24 11:36:35;;;;;;;4.50;2.90;;;18.40;99.90;;;;;;5059754;28;20098;-81
2022/06/24 11:39:06;;;;;;;4.68;3.10;;;18.40;99.90;;;;;;5089978;28;20036;-81
2022/06/24 11:41:40;;;;;;;7.00;3.42;;;18.40;99.90;;;;;;5094398;28;20115;-81
2022/06/24 11:44:05;;;;;;;5.07;3.00;;;18.50;99.90;;;;;;5088065;28;20048;-82
2022/06/24 11:46:32;;;;;;;6.57;3.45;;;18.50;99.90;;;;;;5070403;28;20115;-83
2022/06/24 11:49:12;;;;;;;4.95;3.00;;;18.50;99.90;;;;;;5067478;28;20040;-83
2022/06/24 11:51:38;;;;;;;7.10;4.00;;;18.60;99.90;;;;;;5088294;28;20048;-82
2022/06/24 11:54:07;;;;;;;4.15;3.40;;;18.70;99.90;;;;;;5070829;28;20044;-83
2022/06/24 11:56:53;;;;;;;3.95;3.00;;;18.70;99.90;;;;;;5072697;28;20051;-83
2022/06/24 11:59:21;;;;;;;3.80;2.93;;;18.70;99.90;;;;;;5078292;28;20043;-83
2022/06/24 12:01:47;;;;;;;2.92;2.58;;;18.80;99.90;;;;;;5071574;28;20324;-83
2022/06/24 12:04:14;;;;;;;5.55;2.90;;;18.80;99.90;;;;;;5071652;28;20461;-83
2022/06/24 12:06:41;;;;;;;3.80;2.65;;;18.80;99.90;;;;;;5066917;28;20038;-85
2022/06/24 12:09:08;;;;;;;4.18;2.70;;;18.90;99.90;;;;;;5063561;28;20051;-83
2022/06/24 12:11:39;;;;;;;3.97;3.08;;;18.90;99.90;;;;;;5086952;28;20050;-84
2022/06/24 12:14:09;;;;;;;4.28;2.65;;;18.90;99.90;;;;;;5083743;28;20434;-83
2022/06/24 12:17:08;;;;;;;5.13;3.05;;;18.90;99.90;;;;;;5074511;28;20044;-82
2022/06/24 12:19:55;;;;;;;5.53;3.15;;;18.80;99.90;;;;;;5077820;28;20043;-82
2022/06/24 12:22:20;;;;;;;6.22;3.35;;;18.90;99.90;;;;;;5078060;28;20048;-84
2022/06/24 12:24:46;;;;;;;4.78;3.28;;;18.90;99.90;;;;;;5058029;28;20138;-83
2022/06/24 12:27:13;;;;;;;6.10;3.33;;;18.90;99.90;;;;;;5093932;28;20046;-84
2022/06/24 12:29:42;;;;;;;5.82;3.72;;;19.00;99.90;;;;;;5083806;28;20044;-83
2022/06/24 12:32:09;;;;;;;4.93;3.95;;;19.10;99.90;;;;;;5057253;28;20111;-83
2022/06/24 12:34:37;;;;;;;6.30;4.00;;;19.10;99.90;;;;;;5093977;28;20036;-83
2022/06/24 12:37:06;;;;;;;7.18;3.72;;;19.20;99.90;;;;;;5094499;28;20036;-82
2022/06/24 12:39:35;;;;;;;5.88;4.10;;;19.40;99.90;;;;;;5084047;28;21058;-83
2022/06/24 12:42:01;;;;;;;5.80;4.03;;;19.50;99.90;;;;;;5074071;28;20035;-83
2022/06/24 12:44:43;;;;;;;5.57;3.33;;;19.70;99.90;;;;;;5074195;28;20047;-83
2022/06/24 12:52:44;;;;;;;6.00;4.20;;;20.20;99.90;;;;;;5082837;28;20097;-84
2022/06/24 12:55:13;;;;;;;5.18;3.78;;;20.30;99.90;;;;;;5080956;28;20118;-83
2022/06/24 12:57:39;;;;;;;7.15;4.40;;;20.50;99.90;;;;;;5073946;28;20063;-83
2022/06/24 13:00:10;;;;;;;4.47;3.70;;;20.50;99.90;;;;;;5077792;28;20074;-84
2022/06/24 13:02:40;;;;;;;5.78;4.00;;;20.60;99.90;;;;;;5070608;28;20115;-84
2022/06/24 13:05:06;;;;;;;6.80;4.70;;;20.70;99.90;;;;;;5090334;28;20058;-84
2022/06/24 13:07:32;;;;;;;9.10;5.05;;;20.80;99.90;;;;;;5082998;28;20487;-84
2022/06/24 13:09:58;;;;;;;6.60;4.53;;;20.90;99.90;;;;;;5085841;28;20044;-85
2022/06/24 13:12:23;;;;;;;6.15;4.28;;;21.00;99.90;;;;;;5105959;28;20520;-84